Time;durP1;ratioP1;P1;durP2;ratioP2;P2;SDS_P1;SDS_P2;PMS_P1;PMS_P2;Temp;Humidity;BMP_temperature;BMP_pressure;BME280_temperature;BME280_humidity;BME280_pressure;Samples;Min_cycle;Max_cycle;Signal;HPM_P1;HPM_P2
2024/01/23 00:01:23;;;;;;;11.13;1.47;;;8.90;99.90;;;;;;5054217;28;20036;-53
2024/01/23 00:03:48;;;;;;;13.20;3.47;;;9.00;99.90;;;;;;5054340;28;20079;-55
2024/01/23 00:06:14;;;;;;;10.67;1.40;;;8.90;99.90;;;;;;5054319;28;20596;-55
2024/01/23 00:08:39;;;;;;;18.80;1.90;;;8.90;99.90;;;;;;5054277;28;20029;-55
2024/01/23 00:11:06;;;;;;;6.37;1.57;;;8.90;99.90;;;;;;5054027;28;20021;-55
2024/01/23 00:13:31;;;;;;;24.17;7.80;;;8.90;99.90;;;;;;5054149;28;20043;-55
2024/01/23 00:15:57;;;;;;;11.53;2.40;;;8.90;99.90;;;;;;5054170;28;20473;-55
2024/01/23 00:18:23;;;;;;;14.03;1.67;;;8.90;99.90;;;;;;5054104;28;20120;-55
2024/01/23 00:20:48;;;;;;;8.93;1.80;;;8.80;99.90;;;;;;5054026;28;20439;-55
2024/01/23 00:23:14;;;;;;;12.83;1.40;;;8.80;99.90;;;;;;5053883;28;20044;-55
2024/01/23 00:25:39;;;;;;;14.50;1.93;;;8.70;99.90;;;;;;5053840;28;20037;-53
2024/01/23 00:28:06;;;;;;;10.33;1.43;;;8.70;99.90;;;;;;5053941;28;20029;-54
2024/01/23 00:30:32;;;;;;;11.17;1.60;;;8.60;99.90;;;;;;5053771;28;20417;-55
2024/01/23 00:32:59;;;;;;;8.13;1.40;;;8.70;99.90;;;;;;5053626;28;20021;-55
2024/01/23 00:35:24;;;;;;;12.87;1.93;;;8.70;99.90;;;;;;5053759;28;20028;-55
2024/01/23 00:37:50;;;;;;;8.93;1.30;;;8.60;99.90;;;;;;5053724;28;20024;-55
2024/01/23 00:40:15;;;;;;;10.87;1.43;;;8.60;99.90;;;;;;5053586;28;20393;-54
2024/01/23 00:42:41;;;;;;;11.03;1.90;;;8.60;99.90;;;;;;5053439;28;20021;-55
2024/01/23 00:45:08;;;;;;;5.10;1.10;;;8.60;99.90;;;;;;5053532;28;20619;-54
2024/01/23 00:47:33;;;;;;;4.70;1.60;;;8.70;99.90;;;;;;5053539;28;20052;-55
2024/01/23 00:49:59;;;;;;;6.97;1.47;;;8.60;99.90;;;;;;5053434;28;20094;-53
2024/01/23 00:52:24;;;;;;;11.83;1.73;;;8.70;99.90;;;;;;5053393;28;20036;-55
2024/01/23 00:54:50;;;;;;;7.53;1.40;;;8.50;99.90;;;;;;5053594;28;20112;-55
2024/01/23 00:57:16;;;;;;;5.67;1.47;;;8.30;99.90;;;;;;5053638;28;20036;-51
2024/01/23 00:59:41;;;;;;;11.07;1.57;;;8.20;99.90;;;;;;5053217;28;20036;-55
2024/01/23 01:02:07;;;;;;;9.40;1.60;;;8.10;99.90;;;;;;5053215;28;20095;-54
2024/01/23 01:04:33;;;;;;;7.40;1.43;;;8.10;99.90;;;;;;5052937;28;20509;-55
2024/01/23 01:06:59;;;;;;;6.20;1.13;;;8.10;99.90;;;;;;5053238;28;20033;-54
2024/01/23 01:09:25;;;;;;;5.73;2.10;;;8.10;99.90;;;;;;5053081;28;20367;-55
2024/01/23 01:11:51;;;;;;;10.23;1.67;;;8.00;99.90;;;;;;5052995;28;20025;-55
2024/01/23 01:14:16;;;;;;;10.83;1.97;;;8.00;99.90;;;;;;5053085;28;20025;-55
2024/01/23 01:16:42;;;;;;;11.90;1.67;;;8.00;99.90;;;;;;5051707;28;20593;-54
2024/01/23 01:19:08;;;;;;;16.70;1.60;;;8.00;99.90;;;;;;5052894;28;20091;-55
2024/01/23 01:21:33;;;;;;;10.70;1.27;;;8.00;99.90;;;;;;5052709;28;20036;-55
2024/01/23 01:24:00;;;;;;;9.03;1.80;;;8.00;99.90;;;;;;5052701;28;20032;-54
2024/01/23 01:26:25;;;;;;;6.40;1.40;;;8.00;99.90;;;;;;5052819;28;20024;-55
2024/01/23 01:28:51;;;;;;;10.67;1.80;;;8.00;99.90;;;;;;5052689;28;20036;-55
2024/01/23 01:31:17;;;;;;;8.90;1.30;;;8.10;99.90;;;;;;5052705;28;20090;-55
2024/01/23 01:33:43;;;;;;;5.77;1.17;;;8.10;99.90;;;;;;5052670;28;20112;-54
2024/01/23 01:36:08;;;;;;;10.03;2.00;;;8.10;99.90;;;;;;5052666;28;20128;-56
2024/01/23 01:38:34;;;;;;;10.37;1.50;;;8.20;99.90;;;;;;5052566;28;20580;-54
2024/01/23 01:40:59;;;;;;;6.57;1.37;;;8.20;99.90;;;;;;5052406;28;20054;-53
2024/01/23 01:43:28;;;;;;;8.10;1.57;;;8.20;99.90;;;;;;5052393;28;20504;-56
2024/01/23 01:46:09;;;;;;;6.60;1.30;;;8.20;99.90;;;;;;5052406;28;20033;-55
2024/01/23 01:48:34;;;;;;;10.10;2.13;;;8.30;99.90;;;;;;5052340;28;20048;-55
2024/01/23 01:51:00;;;;;;;10.00;1.80;;;8.30;99.90;;;;;;5052231;28;20029;-54
2024/01/23 01:53:26;;;;;;;9.03;1.40;;;8.30;99.90;;;;;;5052314;28;20025;-55
2024/01/23 01:55:52;;;;;;;8.70;1.30;;;8.30;99.90;;;;;;5052208;28;20379;-55
2024/01/23 01:58:22;;;;;;;6.27;1.30;;;8.30;99.90;;;;;;5052194;28;20026;-55
2024/01/23 02:00:49;;;;;;;10.33;1.87;;;8.30;99.90;;;;;;5052202;28;20041;-55
2024/01/23 02:03:17;;;;;;;7.93;1.63;;;8.20;99.90;;;;;;5051949;28;20595;-55
2024/01/23 02:05:43;;;;;;;9.33;1.60;;;8.20;99.90;;;;;;5050763;28;20037;-55
2024/01/23 02:08:08;;;;;;;11.20;1.60;;;8.20;99.90;;;;;;5052232;28;20482;-55
2024/01/23 02:10:34;;;;;;;4.43;1.27;;;8.20;99.90;;;;;;5051946;28;20029;-55
2024/01/23 02:12:59;;;;;;;16.00;1.63;;;8.20;99.90;;;;;;5052150;28;20087;-54
2024/01/23 02:15:25;;;;;;;6.40;1.30;;;8.20;99.90;;;;;;5051487;28;20025;-51
2024/01/23 02:17:50;;;;;;;14.87;1.40;;;8.20;99.90;;;;;;5052171;28;20082;-53
2024/01/23 02:20:16;;;;;;;10.63;1.70;;;8.20;99.90;;;;;;5052253;28;20060;-54
2024/01/23 02:22:42;;;;;;;8.17;1.60;;;8.20;99.90;;;;;;5050587;28;20029;-55
2024/01/23 02:25:07;;;;;;;10.07;1.47;;;8.00;99.90;;;;;;5051631;28;20585;-54
2024/01/23 02:27:33;;;;;;;14.17;1.80;;;8.00;99.90;;;;;;5051797;28;20029;-54
2024/01/23 02:29:58;;;;;;;7.67;1.93;;;8.20;99.90;;;;;;5051761;28;20025;-53
2024/01/23 02:32:24;;;;;;;9.00;1.10;;;8.20;99.90;;;;;;5051836;28;20540;-51
2024/01/23 02:34:50;;;;;;;10.83;1.10;;;8.20;99.90;;;;;;5052012;28;20044;-51
2024/01/23 02:37:15;;;;;;;11.87;1.70;;;8.10;99.90;;;;;;5052130;28;20040;-55
2024/01/23 02:39:41;;;;;;;6.33;1.73;;;8.10;99.90;;;;;;5051631;28;20033;-51
2024/01/23 02:42:09;;;;;;;10.50;1.67;;;8.10;99.90;;;;;;5051593;28;20044;-53
2024/01/23 02:44:34;;;;;;;10.57;1.40;;;8.10;99.90;;;;;;5051709;28;20054;-55
2024/01/23 02:47:00;;;;;;;8.83;1.90;;;8.10;99.90;;;;;;5051651;28;20119;-51
2024/01/23 02:49:25;;;;;;;7.43;1.13;;;8.10;99.90;;;;;;5051556;28;20037;-52
2024/01/23 02:51:52;;;;;;;5.83;1.30;;;8.10;99.90;;;;;;5051495;28;20025;-53
2024/01/23 02:54:18;;;;;;;8.30;1.90;;;8.00;99.90;;;;;;5051454;28;20037;-53
2024/01/23 02:56:44;;;;;;;9.10;1.10;;;8.00;99.90;;;;;;5051655;28;20056;-53
2024/01/23 02:59:10;;;;;;;14.30;1.47;;;8.00;99.90;;;;;;5051450;28;20044;-52
2024/01/23 03:01:35;;;;;;;10.20;1.40;;;7.90;99.90;;;;;;5051474;28;20029;-56
2024/01/23 03:04:01;;;;;;;8.10;1.13;;;7.90;99.90;;;;;;5051316;28;20087;-52
2024/01/23 03:06:26;;;;;;;7.63;1.90;;;7.80;99.90;;;;;;5051499;28;20477;-55
2024/01/23 03:08:52;;;;;;;10.87;1.10;;;7.70;99.90;;;;;;5051318;28;20017;-51
2024/01/23 03:11:18;;;;;;;8.47;1.23;;;7.60;99.90;;;;;;5051298;28;20470;-56
2024/01/23 03:13:43;;;;;;;11.40;1.43;;;7.50;99.90;;;;;;5051373;28;20170;-54
2024/01/23 03:16:09;;;;;;;7.27;1.87;;;7.60;99.90;;;;;;5051363;28;20041;-54
2024/01/23 03:18:35;;;;;;;5.23;1.20;;;7.60;99.90;;;;;;5051363;28;20032;-56
2024/01/23 03:21:01;;;;;;;7.37;1.30;;;7.60;99.90;;;;;;5051522;28;20025;-55
2024/01/23 03:23:26;;;;;;;7.27;1.27;;;7.50;99.90;;;;;;5051251;28;20053;-54
2024/01/23 03:25:52;;;;;;;8.23;1.27;;;7.60;99.90;;;;;;5051177;28;20036;-55
2024/01/23 03:28:17;;;;;;;15.30;1.40;;;7.60;99.90;;;;;;5055150;28;20385;-55
2024/01/23 03:30:43;;;;;;;8.57;1.47;;;7.60;99.90;;;;;;5055124;28;20025;-51
2024/01/23 03:33:09;;;;;;;9.13;1.27;;;7.50;99.90;;;;;;5054736;28;20033;-51
2024/01/23 03:35:34;;;;;;;5.00;1.20;;;7.50;99.90;;;;;;5053674;28;20044;-55
2024/01/23 03:38:00;;;;;;;7.07;1.40;;;7.60;99.90;;;;;;5054935;28;20033;-54
2024/01/23 03:40:25;;;;;;;8.10;0.97;;;7.60;99.90;;;;;;5054791;28;20025;-54
2024/01/23 03:42:51;;;;;;;10.67;1.17;;;7.50;99.90;;;;;;5054654;28;20032;-51
2024/01/23 03:45:17;;;;;;;8.90;1.47;;;7.50;99.90;;;;;;5054913;28;20029;-51
2024/01/23 03:47:43;;;;;;;9.23;1.40;;;7.40;99.90;;;;;;5053554;28;20036;-50
2024/01/23 03:50:08;;;;;;;5.57;1.10;;;7.40;99.90;;;;;;5054616;28;20040;-51
2024/01/23 03:52:36;;;;;;;6.17;1.13;;;7.40;99.90;;;;;;5053138;28;20502;-51
2024/01/23 03:55:02;;;;;;;8.07;1.17;;;7.40;99.90;;;;;;5054604;28;20021;-53
2024/01/23 03:57:28;;;;;;;7.83;1.00;;;7.40;99.90;;;;;;5054628;28;20511;-55
2024/01/23 03:59:54;;;;;;;8.30;1.30;;;7.30;99.90;;;;;;5054406;28;20183;-53
2024/01/23 04:02:22;;;;;;;8.63;1.67;;;7.30;99.90;;;;;;5054232;28;20040;-52
2024/01/23 04:04:48;;;;;;;6.17;1.43;;;7.30;99.90;;;;;;5054317;28;20033;-55
2024/01/23 04:07:14;;;;;;;8.97;1.13;;;7.20;99.90;;;;;;5054314;28;20029;-53
2024/01/23 04:09:39;;;;;;;15.20;1.60;;;7.20;99.90;;;;;;5054177;28;20067;-53
2024/01/23 04:12:05;;;;;;;12.03;1.43;;;7.20;99.90;;;;;;5054165;28;20021;-55
2024/01/23 04:14:31;;;;;;;8.07;1.37;;;7.10;99.90;;;;;;5054208;28;20094;-54
2024/01/23 04:16:56;;;;;;;10.97;1.87;;;7.10;99.90;;;;;;5054408;28;20136;-55
2024/01/23 04:19:22;;;;;;;9.80;1.13;;;7.10;99.90;;;;;;5054010;28;20033;-51
2024/01/23 04:21:47;;;;;;;8.33;1.27;;;7.10;99.90;;;;;;5053820;28;20057;-55
2024/01/23 04:24:13;;;;;;;9.63;1.40;;;7.10;99.90;;;;;;5053791;28;20036;-51
2024/01/23 04:26:46;;;;;;;8.97;1.37;;;7.00;99.90;;;;;;5053012;28;20394;-54
2024/01/23 04:29:12;;;;;;;8.13;1.03;;;7.00;99.90;;;;;;5054506;28;20421;-53
2024/01/23 04:31:38;;;;;;;11.37;1.10;;;7.00;99.90;;;;;;5053798;28;20037;-54
2024/01/23 04:34:03;;;;;;;12.07;1.77;;;7.00;99.90;;;;;;5053853;28;20031;-54
2024/01/23 04:36:29;;;;;;;5.63;1.13;;;6.90;99.90;;;;;;5053832;28;20025;-54
2024/01/23 04:38:54;;;;;;;8.70;1.10;;;6.90;99.90;;;;;;5052791;28;20485;-54
2024/01/23 04:41:22;;;;;;;9.00;1.97;;;6.90;99.90;;;;;;5053642;28;20070;-55
2024/01/23 04:43:48;;;;;;;7.20;1.50;;;6.90;99.90;;;;;;5053814;28;20043;-54
2024/01/23 04:46:13;;;;;;;17.60;2.03;;;7.00;99.90;;;;;;5053526;28;20032;-54
2024/01/23 04:48:39;;;;;;;7.37;1.27;;;7.00;99.90;;;;;;5053504;28;20090;-53
2024/01/23 04:51:05;;;;;;;9.87;1.10;;;6.90;99.90;;;;;;5053296;28;20025;-53
2024/01/23 04:53:32;;;;;;;6.23;1.27;;;7.00;99.90;;;;;;5053695;28;20487;-52
2024/01/23 04:55:58;;;;;;;10.17;1.77;;;7.00;99.90;;;;;;5054245;28;20039;-55
2024/01/23 04:58:24;;;;;;;5.63;1.47;;;7.00;99.90;;;;;;5053466;28;20172;-52
2024/01/23 05:00:50;;;;;;;9.73;1.57;;;6.90;99.90;;;;;;5053242;28;20131;-54
2024/01/23 05:03:15;;;;;;;10.30;1.93;;;6.90;99.90;;;;;;5053091;28;20025;-55
2024/01/23 05:05:41;;;;;;;18.83;2.07;;;6.90;99.90;;;;;;5053068;28;20033;-54
2024/01/23 05:08:06;;;;;;;10.07;1.53;;;6.90;99.90;;;;;;5053147;28;20112;-53
2024/01/23 05:10:32;;;;;;;11.57;1.90;;;6.80;99.90;;;;;;5053042;28;20108;-50
2024/01/23 05:12:58;;;;;;;14.43;1.90;;;6.70;99.90;;;;;;5053234;28;20033;-55
2024/01/23 05:15:23;;;;;;;13.67;1.27;;;6.70;99.90;;;;;;5053030;28;20106;-53
2024/01/23 05:17:49;;;;;;;6.27;1.67;;;6.60;99.90;;;;;;5053234;28;20401;-55
2024/01/23 05:20:15;;;;;;;11.53;1.53;;;6.50;99.90;;;;;;5054143;28;20535;-56
2024/01/23 05:22:40;;;;;;;8.13;1.30;;;6.60;99.90;;;;;;5052710;28;20039;-55
2024/01/23 05:25:06;;;;;;;12.53;2.10;;;6.60;99.90;;;;;;5052689;28;20033;-55
2024/01/23 05:27:32;;;;;;;6.73;1.13;;;6.50;99.90;;;;;;5052852;28;20041;-52
2024/01/23 05:29:57;;;;;;;7.37;1.30;;;6.50;99.90;;;;;;5052802;28;20044;-52
2024/01/23 05:32:23;;;;;;;8.13;1.40;;;6.50;99.90;;;;;;5052585;28;20028;-53
2024/01/23 05:34:49;;;;;;;12.00;1.40;;;6.50;99.90;;;;;;5052624;28;20507;-55
2024/01/23 05:37:14;;;;;;;16.07;1.83;;;6.40;99.90;;;;;;5052667;28;20033;-52
2024/01/23 05:39:40;;;;;;;8.43;1.03;;;6.30;99.90;;;;;;5054372;28;20043;-53
2024/01/23 05:42:06;;;;;;;8.07;1.30;;;6.30;99.90;;;;;;5053953;28;20086;-55
2024/01/23 05:44:33;;;;;;;16.20;2.90;;;6.20;99.90;;;;;;5052647;28;20087;-56
2024/01/23 05:46:58;;;;;;;10.77;1.77;;;6.20;99.90;;;;;;5052666;28;20025;-56
2024/01/23 05:49:24;;;;;;;7.33;1.37;;;6.20;99.90;;;;;;5052273;28;20401;-55
2024/01/23 05:51:50;;;;;;;7.53;1.67;;;6.20;99.90;;;;;;5052475;28;20446;-56
2024/01/23 05:54:15;;;;;;;10.80;1.83;;;6.20;99.90;;;;;;5052348;28;20025;-55
2024/01/23 05:56:41;;;;;;;10.70;1.67;;;6.20;99.90;;;;;;5052365;28;20497;-56
2024/01/23 05:59:07;;;;;;;10.60;1.47;;;6.20;99.90;;;;;;5052317;28;20033;-56
2024/01/23 06:01:33;;;;;;;10.90;1.70;;;6.20;99.90;;;;;;5052120;28;20028;-56
2024/01/23 06:03:59;;;;;;;9.23;1.30;;;6.10;99.90;;;;;;5052098;28;20025;-55
2024/01/23 06:06:26;;;;;;;14.27;1.67;;;6.10;99.90;;;;;;5052119;28;20041;-54
2024/01/23 06:08:51;;;;;;;14.03;2.33;;;6.10;99.90;;;;;;5052026;28;20535;-55
2024/01/23 06:11:17;;;;;;;11.27;1.60;;;6.10;99.90;;;;;;5051847;28;20120;-54
2024/01/23 06:13:43;;;;;;;5.73;1.10;;;6.10;99.90;;;;;;5051948;28;20102;-52
2024/01/23 06:16:09;;;;;;;11.97;1.87;;;6.00;99.90;;;;;;5052040;28;20072;-54
2024/01/23 06:18:35;;;;;;;13.00;2.13;;;6.00;99.90;;;;;;5051876;28;20029;-54
2024/01/23 06:21:02;;;;;;;7.87;1.77;;;6.00;99.90;;;;;;5051867;28;20033;-55
2024/01/23 06:23:28;;;;;;;12.80;2.50;;;6.00;99.90;;;;;;5051945;28;20446;-56
2024/01/23 06:25:53;;;;;;;7.63;1.70;;;6.00;99.90;;;;;;5051756;28;20033;-53
2024/01/23 06:28:19;;;;;;;9.03;1.40;;;5.90;99.90;;;;;;5051836;28;20104;-56
2024/01/23 06:30:45;;;;;;;9.50;1.00;;;6.00;99.90;;;;;;5051763;28;20029;-52
2024/01/23 06:33:12;;;;;;;8.10;1.30;;;6.00;99.90;;;;;;5051483;28;20033;-54
2024/01/23 06:35:38;;;;;;;7.23;1.60;;;6.10;99.90;;;;;;5051818;28;20671;-56
2024/01/23 06:38:03;;;;;;;8.40;1.77;;;6.00;99.90;;;;;;5051698;28;20036;-54
2024/01/23 06:40:29;;;;;;;9.80;2.10;;;5.90;99.90;;;;;;5051741;28;20112;-55
2024/01/23 06:42:54;;;;;;;12.20;1.37;;;6.00;99.90;;;;;;5051612;28;20036;-54
2024/01/23 06:45:20;;;;;;;9.50;1.30;;;6.00;99.90;;;;;;5051735;28;20078;-53
2024/01/23 06:47:45;;;;;;;14.90;1.80;;;5.90;99.90;;;;;;5051603;28;20029;-53
2024/01/23 06:50:12;;;;;;;8.50;1.50;;;5.90;99.90;;;;;;5051488;28;20025;-54
2024/01/23 06:52:38;;;;;;;9.37;1.10;;;6.00;99.90;;;;;;5051376;28;20033;-55
2024/01/23 06:55:04;;;;;;;9.63;1.80;;;6.00;99.90;;;;;;5051867;28;20171;-55
2024/01/23 06:57:30;;;;;;;17.80;2.37;;;5.90;99.90;;;;;;5052154;28;20389;-53
2024/01/23 06:59:55;;;;;;;11.70;2.80;;;5.90;99.90;;;;;;5051402;28;20029;-54
2024/01/23 07:02:21;;;;;;;11.17;2.53;;;5.90;99.90;;;;;;5053657;28;20462;-51
2024/01/23 07:04:46;;;;;;;13.70;1.87;;;5.90;99.90;;;;;;5055344;28;20036;-54
2024/01/23 07:07:12;;;;;;;17.40;2.37;;;5.90;99.90;;;;;;5055379;28;20373;-55
2024/01/23 07:09:38;;;;;;;9.63;1.77;;;5.90;99.90;;;;;;5055283;28;20136;-55
2024/01/23 07:12:04;;;;;;;13.27;2.63;;;6.00;99.90;;;;;;5055119;28;20025;-55
2024/01/23 07:14:29;;;;;;;10.63;2.60;;;6.00;99.90;;;;;;5055275;28;20048;-54
2024/01/23 07:16:55;;;;;;;11.03;2.27;;;6.00;99.90;;;;;;5055245;28;20033;-52
2024/01/23 07:19:21;;;;;;;11.63;2.10;;;6.00;99.90;;;;;;5055205;28;20029;-50
2024/01/23 07:21:47;;;;;;;12.13;2.80;;;6.00;99.90;;;;;;5055030;28;20033;-50
2024/01/23 07:24:13;;;;;;;10.97;1.70;;;6.00;99.90;;;;;;5054779;28;20025;-51
2024/01/23 07:26:39;;;;;;;8.37;1.47;;;6.00;99.90;;;;;;5055068;28;20362;-52
2024/01/23 07:29:04;;;;;;;10.73;1.83;;;6.00;99.90;;;;;;5054959;28;20484;-52
2024/01/23 07:31:30;;;;;;;13.33;1.97;;;5.90;99.90;;;;;;5054787;28;20025;-52
2024/01/23 07:33:56;;;;;;;7.97;2.00;;;6.00;99.90;;;;;;5054867;28;20037;-55
2024/01/23 07:36:22;;;;;;;10.43;2.20;;;6.00;99.90;;;;;;5054948;28;20060;-50
2024/01/23 07:38:47;;;;;;;15.87;2.97;;;5.90;99.90;;;;;;5054844;28;20064;-52
2024/01/23 07:41:13;;;;;;;14.93;2.10;;;5.90;99.90;;;;;;5054874;28;20110;-51
2024/01/23 07:43:38;;;;;;;10.30;2.40;;;5.90;99.90;;;;;;5055073;28;20021;-55
2024/01/23 07:46:04;;;;;;;6.23;1.97;;;5.90;99.90;;;;;;5054818;28;20527;-55
2024/01/23 07:48:30;;;;;;;12.10;1.83;;;5.90;99.90;;;;;;5054867;28;20040;-55
2024/01/23 07:50:55;;;;;;;7.57;1.43;;;5.90;99.90;;;;;;5054498;28;20086;-55
2024/01/23 07:53:21;;;;;;;10.00;2.10;;;5.90;99.90;;;;;;5054410;28;20155;-51
2024/01/23 07:55:46;;;;;;;14.17;1.63;;;5.80;99.90;;;;;;5054841;28;20029;-53
2024/01/23 07:58:13;;;;;;;9.13;2.23;;;5.70;99.90;;;;;;5054572;28;20040;-52
2024/01/23 08:00:41;;;;;;;8.83;2.27;;;5.80;99.90;;;;;;5054409;28;20120;-54
2024/01/23 08:03:06;;;;;;;11.47;2.27;;;5.80;99.90;;;;;;5054259;28;20029;-54
2024/01/23 08:05:32;;;;;;;12.97;2.33;;;5.70;99.90;;;;;;5054447;28;20532;-53
2024/01/23 08:07:57;;;;;;;11.33;1.40;;;5.70;99.90;;;;;;5054474;28;20021;-55
2024/01/23 08:10:24;;;;;;;12.30;1.77;;;5.80;99.90;;;;;;5054251;28;20036;-55
2024/01/23 08:12:50;;;;;;;17.67;2.40;;;5.80;99.90;;;;;;5052700;28;20482;-53
2024/01/23 08:15:18;;;;;;;12.83;2.40;;;5.90;99.90;;;;;;5054159;28;20470;-55
2024/01/23 08:17:44;;;;;;;5.67;1.20;;;5.90;99.90;;;;;;5054244;28;20386;-53
2024/01/23 08:20:10;;;;;;;9.70;1.43;;;6.00;99.90;;;;;;5054236;28;20040;-54
2024/01/23 08:22:36;;;;;;;12.00;1.63;;;6.00;99.90;;;;;;5052772;28;20029;-54
2024/01/23 08:25:02;;;;;;;8.27;1.63;;;6.00;99.90;;;;;;5053683;28;20028;-54
2024/01/23 08:27:28;;;;;;;11.90;1.60;;;6.00;99.90;;;;;;5054168;28;20037;-55
2024/01/23 08:29:53;;;;;;;14.43;1.97;;;5.90;99.90;;;;;;5053889;28;20033;-53
2024/01/23 08:32:19;;;;;;;9.87;1.80;;;6.00;99.90;;;;;;5053694;28;20025;-55
2024/01/23 08:34:45;;;;;;;9.97;1.67;;;6.00;99.90;;;;;;5053931;28;20032;-54
2024/01/23 08:37:10;;;;;;;12.27;2.17;;;6.00;99.90;;;;;;5053925;28;20509;-54
2024/01/23 08:39:36;;;;;;;13.87;2.43;;;6.10;99.90;;;;;;5053725;28;20108;-54
2024/01/23 08:42:03;;;;;;;4.87;1.80;;;6.10;99.90;;;;;;5053483;28;20441;-54
2024/01/23 08:44:29;;;;;;;15.60;2.30;;;6.10;99.90;;;;;;5053614;28;20032;-55
2024/01/23 08:46:54;;;;;;;15.40;2.47;;;6.30;99.90;;;;;;5053672;28;20493;-55
2024/01/23 08:49:20;;;;;;;10.23;2.43;;;6.30;99.90;;;;;;5053316;28;20083;-53
2024/01/23 08:51:48;;;;;;;13.07;2.47;;;6.50;99.90;;;;;;5053456;28;20108;-54
2024/01/23 08:54:18;;;;;;;12.97;2.27;;;6.60;99.90;;;;;;5053481;28;20060;-54
2024/01/23 08:56:46;;;;;;;13.33;1.80;;;6.60;99.90;;;;;;5053447;28;20052;-52
2024/01/23 08:59:11;;;;;;;14.60;1.60;;;6.70;99.90;;;;;;5053313;28;20025;-54
2024/01/23 09:01:40;;;;;;;10.90;2.50;;;6.70;99.90;;;;;;5053228;28;20032;-55
2024/01/23 09:04:06;;;;;;;6.00;1.30;;;6.80;99.90;;;;;;5053124;28;20029;-56
2024/01/23 09:06:31;;;;;;;7.77;1.57;;;6.80;99.90;;;;;;5053207;28;20036;-56
2024/01/23 09:08:57;;;;;;;10.50;1.30;;;6.90;99.90;;;;;;5053070;28;20025;-56
2024/01/23 09:11:22;;;;;;;9.93;2.27;;;7.00;99.90;;;;;;5053059;28;20107;-55
2024/01/23 09:13:48;;;;;;;17.77;2.43;;;7.10;99.90;;;;;;5053094;28;20037;-55
2024/01/23 09:16:14;;;;;;;7.07;1.80;;;7.20;99.90;;;;;;5053041;28;20033;-54
2024/01/23 09:18:40;;;;;;;10.93;1.83;;;7.20;99.90;;;;;;5053062;28;20032;-56
2024/01/23 09:21:08;;;;;;;13.00;1.77;;;7.30;99.90;;;;;;5052832;28;20037;-54
2024/01/23 09:23:37;;;;;;;11.53;2.23;;;7.40;99.90;;;;;;5052735;28;20033;-56
2024/01/23 09:26:03;;;;;;;12.50;2.13;;;7.50;99.90;;;;;;5052600;28;20035;-55
2024/01/23 09:28:29;;;;;;;13.67;1.57;;;7.50;99.90;;;;;;5053004;28;20111;-55
2024/01/23 09:30:54;;;;;;;8.63;1.90;;;7.50;99.90;;;;;;5052818;28;20029;-54
2024/01/23 09:33:20;;;;;;;9.20;1.97;;;7.60;99.90;;;;;;5052562;28;20029;-56
2024/01/23 09:35:46;;;;;;;14.87;2.50;;;7.80;99.90;;;;;;5052865;28;20064;-55
2024/01/23 09:38:12;;;;;;;12.70;2.83;;;8.00;99.90;;;;;;5052641;28;20033;-56
2024/01/23 09:40:38;;;;;;;9.40;1.87;;;8.20;99.90;;;;;;5052444;28;20116;-54
2024/01/23 09:43:03;;;;;;;13.77;1.80;;;8.80;99.90;;;;;;5052447;28;20024;-55
2024/01/23 09:45:30;;;;;;;11.17;2.23;;;9.70;99.90;;;;;;5052479;28;20482;-55
2024/01/23 09:47:56;;;;;;;6.60;2.03;;;10.40;99.90;;;;;;5052445;28;20086;-55
2024/01/23 09:50:26;;;;;;;12.10;2.70;;;11.10;99.90;;;;;;5052364;28;20033;-54
2024/01/23 09:52:52;;;;;;;9.17;2.47;;;11.70;99.90;;;;;;5052125;28;20052;-56
2024/01/23 09:55:18;;;;;;;10.13;2.20;;;12.10;99.90;;;;;;5052274;28;20075;-56
2024/01/23 09:57:45;;;;;;;9.40;1.90;;;12.80;99.90;;;;;;5052361;28;20055;-54
2024/01/23 10:00:14;;;;;;;9.50;2.58;;;13.20;99.90;;;;;;5052211;28;20032;-54
2024/01/23 10:02:40;;;;;;;8.68;2.50;;;13.60;99.90;;;;;;5052226;28;20025;-55
2024/01/23 10:05:09;;;;;;;11.93;3.00;;;13.90;99.90;;;;;;5052178;28;20184;-56
2024/01/23 10:07:36;;;;;;;12.43;2.58;;;13.90;99.90;;;;;;5052222;28;20094;-56
2024/01/23 10:10:05;;;;;;;7.75;2.22;;;14.40;99.90;;;;;;5050620;28;20456;-56
2024/01/23 10:12:32;;;;;;;11.02;2.53;;;14.10;99.90;;;;;;5051925;28;20056;-56
2024/01/23 10:14:59;;;;;;;13.73;2.30;;;14.20;99.90;;;;;;5052195;28;20056;-55
2024/01/23 10:17:25;;;;;;;10.50;2.35;;;14.80;99.90;;;;;;5052009;28;20555;-54
2024/01/23 10:19:52;;;;;;;11.68;2.17;;;14.80;99.90;;;;;;5052058;28;20295;-52
2024/01/23 10:22:18;;;;;;;6.90;1.65;;;15.00;99.60;;;;;;5052852;28;20312;-56
2024/01/23 10:24:44;;;;;;;13.75;2.45;;;15.40;99.20;;;;;;5051951;28;20555;-52
2024/01/23 10:27:09;;;;;;;12.73;2.40;;;15.80;98.90;;;;;;5051947;28;20061;-55
2024/01/23 10:29:35;;;;;;;10.10;2.05;;;16.50;97.30;;;;;;5051768;28;20108;-55
2024/01/23 10:32:03;;;;;;;9.50;2.30;;;17.20;96.30;;;;;;5051674;28;20408;-53
2024/01/23 10:34:29;;;;;;;7.68;2.00;;;17.40;95.90;;;;;;5051743;28;20091;-54
2024/01/23 10:36:57;;;;;;;9.68;2.13;;;18.00;95.30;;;;;;5050902;28;20068;-51
2024/01/23 10:39:25;;;;;;;;;;;17.90;94.40;;;;;;5052166;28;20116;-56
2024/01/23 10:41:52;;;;;;;8.70;2.35;;;17.40;94.40;;;;;;5051627;28;19916;-53
2024/01/23 10:44:21;;;;;;;8.80;2.20;;;17.60;94.20;;;;;;5051448;28;20389;-54
2024/01/23 10:46:49;;;;;;;10.75;2.83;;;17.00;95.10;;;;;;5051663;28;20029;-55
2024/01/23 10:49:15;;;;;;;10.35;2.33;;;17.20;95.10;;;;;;5051482;28;20039;-56
2024/01/23 10:51:47;;;;;;;11.13;2.85;;;17.10;95.00;;;;;;5051384;28;20033;-55
2024/01/23 10:54:24;;;;;;;10.30;2.22;;;17.60;94.70;;;;;;5053025;28;20036;-53
2024/01/23 10:56:54;;;;;;;9.57;2.70;;;18.10;94.10;;;;;;5051584;28;20052;-54
2024/01/23 10:59:24;;;;;;;10.60;2.05;;;18.60;92.70;;;;;;5051411;28;20095;-56
2024/01/23 11:01:53;;;;;;;12.07;2.53;;;18.30;93.20;;;;;;5051385;28;20029;-56
2024/01/23 11:04:19;;;;;;;6.63;1.67;;;18.40;92.80;;;;;;5051346;28;20051;-52
2024/01/23 11:06:57;;;;;;;8.95;2.00;;;18.50;92.50;;;;;;5051469;28;20025;-54
2024/01/23 11:09:29;;;;;;;12.60;2.55;;;18.30;92.60;;;;;;5051328;28;20055;-56
2024/01/23 11:12:14;;;;;;;11.38;1.88;;;18.30;92.10;;;;;;5051276;28;20091;-55
2024/01/23 11:14:48;;;;;;;12.95;2.25;;;17.70;92.60;;;;;;5051435;28;20044;-56
2024/01/23 11:17:14;;;;;;;10.07;2.20;;;16.90;93.80;;;;;;5051541;28;20116;-56
2024/01/23 11:19:42;;;;;;;13.20;2.30;;;16.90;94.20;;;;;;5051277;28;20037;-56
2024/01/23 11:22:10;;;;;;;5.95;1.55;;;17.00;94.00;;;;;;5051078;28;20029;-55
2024/01/23 11:24:44;;;;;;;;;;;17.00;93.60;;;;;;5051616;28;20036;-55
2024/01/23 11:27:21;;;;;;;13.27;2.15;;;16.70;94.10;;;;;;5051413;28;20007;-54
2024/01/23 11:29:47;;;;;;;11.02;2.25;;;16.90;93.50;;;;;;5051171;28;20036;-56
2024/01/23 11:32:23;;;;;;;14.32;2.10;;;16.40;94.00;;;;;;5051001;28;20358;-56
2024/01/23 11:35:02;;;;;;;10.43;1.92;;;16.40;94.20;;;;;;5051224;28;20120;-54
2024/01/23 11:37:50;;;;;;;12.43;2.28;;;15.90;95.00;;;;;;5051106;28;20032;-56
2024/01/23 11:40:29;;;;;;;9.80;2.28;;;15.20;95.70;;;;;;5050945;28;20031;-55
2024/01/23 11:42:55;;;;;;;12.13;2.15;;;14.40;97.00;;;;;;5049642;28;20087;-56
2024/01/23 11:45:26;;;;;;;13.60;2.03;;;13.40;98.20;;;;;;5049736;28;20033;-55
2024/01/23 11:47:58;;;;;;;9.68;1.83;;;12.90;99.80;;;;;;5052640;28;20025;-53
2024/01/23 11:50:26;;;;;;;13.45;2.13;;;12.40;99.90;;;;;;5054639;28;20115;-51
2024/01/23 11:52:54;;;;;;;15.35;2.17;;;12.00;99.90;;;;;;5054512;28;20029;-56
2024/01/23 11:55:21;;;;;;;13.32;2.33;;;11.60;99.90;;;;;;5054796;28;20036;-56
2024/01/23 11:57:51;;;;;;;14.23;2.05;;;11.40;99.90;;;;;;5054569;28;20033;-56
2024/01/23 12:00:18;;;;;;;9.55;1.95;;;11.60;99.90;;;;;;5054534;28;20051;-56
2024/01/23 12:02:44;;;;;;;8.68;1.98;;;11.90;99.90;;;;;;5054293;28;20033;-55
2024/01/23 12:05:10;;;;;;;6.07;1.60;;;12.10;99.90;;;;;;5054149;28;20033;-52
2024/01/23 12:07:37;;;;;;;13.18;2.38;;;11.90;99.90;;;;;;5053078;28;20384;-55
2024/01/23 12:10:04;;;;;;;10.73;1.57;;;11.40;99.90;;;;;;5054223;28;20025;-53
2024/01/23 12:12:30;;;;;;;11.57;2.47;;;11.00;99.90;;;;;;5054631;28;20028;-53
2024/01/23 12:14:56;;;;;;;11.13;1.83;;;10.70;99.90;;;;;;5054260;28;20043;-50
2024/01/23 12:17:22;;;;;;;14.77;1.70;;;10.50;99.90;;;;;;5054283;28;20033;-51
2024/01/23 12:19:48;;;;;;;8.93;1.97;;;10.50;99.90;;;;;;5054282;28;20029;-55
2024/01/23 12:22:15;;;;;;;11.73;2.13;;;10.50;99.90;;;;;;5053930;28;20564;-51
2024/01/23 12:24:42;;;;;;;14.20;2.47;;;10.50;99.90;;;;;;5053976;28;20041;-55
2024/01/23 12:27:08;;;;;;;11.20;2.33;;;10.60;99.90;;;;;;5053958;28;20072;-54
2024/01/23 12:29:35;;;;;;;17.13;2.13;;;10.50;99.90;;;;;;5053531;28;20106;-54
2024/01/23 12:32:01;;;;;;;9.63;1.60;;;10.40;99.90;;;;;;5053698;28;20029;-52
2024/01/23 12:34:29;;;;;;;13.40;2.77;;;10.30;99.90;;;;;;5053780;28;20032;-54
2024/01/23 12:36:59;;;;;;;10.90;2.17;;;10.30;99.90;;;;;;5053861;28;20037;-54
2024/01/23 12:39:24;;;;;;;12.50;2.20;;;10.20;99.90;;;;;;5053948;28;20044;-50
2024/01/23 12:41:51;;;;;;;17.43;2.10;;;10.20;99.90;;;;;;5053519;28;20025;-50
2024/01/23 12:44:16;;;;;;;13.30;2.23;;;10.00;99.90;;;;;;5053643;28;20115;-53
2024/01/23 12:46:42;;;;;;;11.17;2.00;;;10.00;99.90;;;;;;5051362;28;20045;-53